This is the latest recevied weather packets stored in our database for station/object W6ORV. If no packets are shown the sender has not sent any weather packets the latest 1 day(s).
| Time | Temp. | Humidity | Pressure | Rain* | Wind** | Luminosity | Snow |
|---|---|---|---|---|---|---|---|
| 1836274645 | 19.44° C | 81% | 4299.1 hPa | 0 mm | 0 m/s | 0 W/m² | - |
| 1836274498 | 19.44° C | 81% | 4299.3 hPa | 0 mm | 0.45 m/s, 205° | 0 W/m² | - |
| 1836274343 | 20° C | 80% | 4299.3 hPa | 0 mm | 0 m/s | 0 W/m² | - |
| 1836274196 | 19.44° C | 81% | 4299.2 hPa | 0 mm | 0 m/s | 0 W/m² | - |
| 1836274041 | 20° C | 80% | 4299.2 hPa | 0 mm | 0 m/s | 0 W/m² | - |
| 1778046780 | 10.56° C | 88% | 4302.3 hPa | 0 mm | 0 m/s | 0 W/m² | - |
| 1778046476 | 10.56° C | 87% | 4302.6 hPa | 0 mm | 0 m/s | 0 W/m² | - |
| 1778046173 | 10.56° C | 87% | 4302.3 hPa | 0 mm | 0 m/s | 0 W/m² | - |
| 1778045869 | 10.56° C | 87% | 4302.5 hPa | 0 mm | 0 m/s | 0 W/m² | - |
| 1778045569 | 10.56° C | 86% | 4302.3 hPa | 0 mm | 0 m/s | 0 W/m² | - |
| 1778045266 | 11.11° C | 86% | 4302 hPa | 0 mm | 0 m/s | 0 W/m² | - |
| 1778044964 | 11.11° C | 86% | 4302.1 hPa | 0 mm | 0 m/s | 0 W/m² | - |
| 1778044661 | 11.11° C | 86% | 4302 hPa | 0 mm | 0 m/s | 0 W/m² | - |
| 1778044357 | 11.11° C | 86% | 4302 hPa | 0 mm | 0 m/s | 0 W/m² | - |
| 1778044056 | 11.67° C | 85% | 4302.2 hPa | 0 mm | 0 m/s | 0 W/m² | - |
| 1778043753 | 11.67° C | 84% | 4302 hPa | 0 mm | 0 m/s | 0 W/m² | - |
| 1778043449 | 11.67° C | 83% | 4301.7 hPa | 0 mm | 0 m/s | 0 W/m² | - |
| 1778043146 | 12.22° C | 83% | 4301.5 hPa | 0 mm | 0 m/s | 0 W/m² | - |
| 1778042843 | 12.22° C | 83% | 4301.7 hPa | 0 mm | 0 m/s | 0 W/m² | - |
| 1778042541 | 12.22° C | 83% | 4301.7 hPa | 0 mm | 0 m/s | 0 W/m² | - |
| 1778042238 | 12.22° C | 82% | 4301.3 hPa | 0 mm | 0 m/s | 0 W/m² | - |
| 1778041936 | 12.78° C | 81% | 4301.7 hPa | 0 mm | 0 m/s | 0 W/m² | - |
| 1778041634 | 12.78° C | 80% | 4301.7 hPa | 0 mm | 0 m/s | 0 W/m² | - |
| 1778041332 | 12.78° C | 81% | 4301.3 hPa | 0 mm | 0 m/s | 0 W/m² | - |
| 1778041030 | 12.78° C | 81% | 4301.4 hPa | 0 mm | 0 m/s | 0 W/m² | - |
* Rain latest hour (hover to see other rain measurements)
** Current wind speed in m/s (hover to see current wind gust speed)